Aviation Digital Data Service (ADDS)

Output produced by METARs form (1140 UTC 02 September 2014)
found at http://www.aviationweather.gov/adds/metars/
 
KLGA 020831Z 0209/0306 21005KT P6SM SCT080 
     TEMPO 0210/0212 6SM BR SCT020 
     FM021400 24008KT P6SM SCT060 
     FM021900 20012G18KT P6SM SCT050 
     FM030100 22009KT P6SM SCT050 BKN150 
     PROB30 0302/0306 SHRA BKN050